Hvar, Croatia

2:56 PM CEST on August 27, 2014 (GMT +0200)
Milna Lucice | Change Station
CLOSE
Current Station
Personal Weather Station
Location: Milna, SPLITSKO-DALMATINSKA žUPANIJA
Elevation: 33 ft
Nearby Weather Stations

Elev 33 ft 43.31 °N, 16.45 °E | Updated 11 minutes ago

Partly Cloudy
Partly Cloudy
83.7 °F
Feels Like 88 °F
N
6.0
Wind Variable Wind from South
Gusts 8.0 mph

Today
High -- | Low -- °F
--% Chance of Precip.
Yesterday
High -- | Low -- °F
Precip. -- in
6:12 AM 7:38 PM
Waxing Crescent, 3% visible
Pressure 29.86 in
Visibility 6.2 miles
Clouds Few 4000 ft
Heat Index 88 °F
Dew Point 71 °F
Humidity 65%
Rainfall 0.00 in
Snow Depth Not available.
UV 7 out of 12
Pollen Not available.
Air Quality Not available.
Flu Activity Not available.
METAR LDSP 271230Z 21004KT 120V260 9999 FEW040 28/20 Q1011 NOSIG

More Conditions Fewer Conditions

Pressure 29.86 in
Visibility 6.2 miles
Clouds Few 4000 ft
Heat Index 88 °F
Dew Point 71 °F
Humidity 65%
Rainfall 0.00 in
Snow Depth Not available.
UV 7 out of 12
Pollen Not available.
Air Quality Not available.
Flu Activity Not available.
METAR LDSP 271230Z 21004KT 120V260 9999 FEW040 28/20 Q1011 NOSIG

More Conditions Fewer Conditions

10-Day Weather Forecast

Almanac

Astronomy

Aug. 27, 2014 Rise Set
Actual Time 6:12 AM CEST 7:38 PM CEST
Civil Twilight 5:42 AM CEST 8:07 PM CEST
Nautical Twilight 5:07 AM CEST 8:43 PM CEST
Astronomical Twilight 4:28 AM CEST 9:21 PM CEST
Moon 7:56 AM CEST 8:16 PM CEST
Length of Visible Light 14h 24m
Length of Day
13h 25m
Tomorrow will be 2m 47s shorter.
Waxing Crescent, 3% of the Moon is Illuminated
Today
Waxing Crescent
Sep 2
First Quarter
Sep 8
Full
Sep 15
Last Quarter
Sep 24
New

Yesterday's Extremes

Country Highs Country Lows

Community

WunderPhotos

Upload Photos

1,747,676 photos uploaded!

Nearby

Snow Depth

Not available.

Earthquake Activity

City Distance Mag. Time & Date
No recent earthquake activity has been reported nearby.
Minimum magnitude displayed is 2.5.

Coastal Water Temperatures

Place Temperature
No Stations Reporting

Nearby Weather Stations